createdAt,value
2019-05-20T00:00:53.546Z,0.00
2019-05-20T00:01:53.467Z,0.00
2019-05-20T00:02:53.393Z,0.00
2019-05-20T00:03:53.320Z,0.00
2019-05-20T00:04:53.237Z,0.00
2019-05-20T00:05:53.260Z,0.00
2019-05-20T00:06:53.090Z,0.00
2019-05-20T00:07:53.013Z,0.00
2019-05-20T00:08:52.936Z,0.00
2019-05-20T00:09:52.859Z,0.00
2019-05-20T00:10:52.791Z,0.00
2019-05-20T00:11:53.790Z,0.00
2019-05-20T00:12:52.632Z,0.00
2019-05-20T00:13:52.559Z,0.00
2019-05-20T00:14:52.481Z,0.00
2019-05-20T00:15:52.406Z,0.00
2019-05-20T00:16:52.333Z,0.00
2019-05-20T00:17:52.247Z,0.00
2019-05-20T00:18:52.176Z,0.00
2019-05-20T00:19:52.102Z,0.00
2019-05-20T00:20:52.023Z,0.00
2019-05-20T00:21:51.956Z,0.00
2019-05-20T00:22:51.872Z,0.00
2019-05-20T00:23:51.797Z,0.00
2019-05-20T00:24:51.723Z,0.00
2019-05-20T00:25:51.641Z,0.00
2019-05-20T00:26:51.569Z,0.00
2019-05-20T00:27:51.495Z,0.00
2019-05-20T00:28:51.425Z,0.00
2019-05-20T00:29:51.343Z,0.00
2019-05-20T00:30:51.267Z,0.00
2019-05-20T00:31:51.194Z,0.00
2019-05-20T00:32:51.120Z,0.00
2019-05-20T00:33:51.034Z,0.00
2019-05-20T00:34:50.962Z,0.00
2019-05-20T00:35:50.886Z,0.00
2019-05-20T00:36:50.812Z,0.00
2019-05-20T00:37:50.737Z,0.00
2019-05-20T00:38:50.677Z,0.00
2019-05-20T00:39:50.632Z,0.00
2019-05-20T00:40:50.511Z,0.00
2019-05-20T00:41:50.430Z,0.00
2019-05-20T00:42:50.355Z,0.00
2019-05-20T00:43:50.288Z,0.00
2019-05-20T00:44:50.201Z,0.00
2019-05-20T00:45:50.127Z,0.00
2019-05-20T00:46:50.056Z,0.00
2019-05-20T00:47:49.973Z,0.00
2019-05-20T00:48:49.900Z,0.00
2019-05-20T00:49:49.826Z,0.00
2019-05-20T00:50:49.748Z,0.00
2019-05-20T00:51:49.669Z,0.00
2019-05-20T00:52:49.597Z,0.00
2019-05-20T00:53:49.521Z,0.00
2019-05-20T00:54:49.442Z,0.00
2019-05-20T00:55:49.368Z,0.00
2019-05-20T00:56:49.299Z,0.00
2019-05-20T00:57:49.215Z,0.00
2019-05-20T00:58:49.145Z,0.00
2019-05-20T00:59:49.064Z,0.00
2019-05-20T01:00:49.007Z,0.00
2019-05-20T01:01:48.917Z,0.00
2019-05-20T01:02:56.470Z,0.00
2019-05-20T01:03:48.757Z,0.00
2019-05-20T01:04:48.685Z,0.00
2019-05-20T01:05:48.608Z,0.00
2019-05-20T01:06:48.532Z,0.00
2019-05-20T01:07:48.456Z,0.00
2019-05-20T01:08:48.376Z,0.00
2019-05-20T01:09:48.303Z,0.00
2019-05-20T01:10:48.227Z,0.00
2019-05-20T01:11:48.149Z,0.00
2019-05-20T01:12:48.078Z,0.00
2019-05-20T01:13:47.997Z,0.00
2019-05-20T01:14:47.923Z,0.00
2019-05-20T01:15:47.851Z,0.00
2019-05-20T01:16:47.778Z,0.00
2019-05-20T01:17:47.695Z,0.00
2019-05-20T01:18:47.614Z,0.00
2019-05-20T01:19:47.542Z,0.00
2019-05-20T01:20:47.468Z,0.00
2019-05-20T01:21:47.389Z,0.00
2019-05-20T01:22:47.314Z,0.00
2019-05-20T01:23:47.236Z,0.00
2019-05-20T01:24:47.160Z,0.00
2019-05-20T01:25:47.082Z,0.00
2019-05-20T01:26:47.010Z,0.00
2019-05-20T01:27:46.933Z,0.00
2019-05-20T01:28:46.855Z,0.00
2019-05-20T01:29:46.784Z,0.00
2019-05-20T01:30:46.703Z,0.00
2019-05-20T01:31:46.630Z,0.00
2019-05-20T01:32:46.559Z,0.00
2019-05-20T01:33:46.471Z,0.00
2019-05-20T01:34:46.394Z,0.00
2019-05-20T01:35:46.318Z,0.00
2019-05-20T01:36:46.244Z,0.00
2019-05-20T01:37:46.172Z,0.00
2019-05-20T01:38:46.090Z,0.00
2019-05-20T01:39:46.030Z,0.00
2019-05-20T01:40:45.938Z,0.00
2019-05-20T01:41:45.868Z,0.00
2019-05-20T01:42:45.785Z,0.00
2019-05-20T01:43:45.711Z,0.00
2019-05-20T01:44:45.635Z,0.00
2019-05-20T01:45:45.559Z,0.00
2019-05-20T01:46:45.482Z,0.00
2019-05-20T01:47:45.405Z,0.00
2019-05-20T01:48:45.329Z,0.00
2019-05-20T01:49:45.252Z,0.00
2019-05-20T01:50:45.177Z,0.00
2019-05-20T01:51:45.099Z,0.00
2019-05-20T01:52:45.025Z,0.00
2019-05-20T01:53:44.946Z,0.00
2019-05-20T01:54:44.875Z,0.00
2019-05-20T01:55:44.801Z,0.00
2019-05-20T01:56:44.722Z,0.00
2019-05-20T01:57:44.698Z,0.00
2019-05-20T01:58:44.566Z,0.00
2019-05-20T01:59:44.483Z,0.00
2019-05-20T02:00:44.410Z,0.00
2019-05-20T02:01:44.334Z,0.00
2019-05-20T02:02:44.260Z,0.00
2019-05-20T02:03:44.192Z,0.00
2019-05-20T02:04:44.106Z,0.00
2019-05-20T02:05:44.032Z,0.00
2019-05-20T02:06:43.953Z,0.00
2019-05-20T02:07:43.878Z,0.00
2019-05-20T02:08:43.807Z,0.00
2019-05-20T02:09:43.725Z,0.00
2019-05-20T02:10:43.643Z,0.00
2019-05-20T02:11:43.570Z,0.00
2019-05-20T02:12:43.496Z,0.00
2019-05-20T02:13:43.418Z,0.00
2019-05-20T02:14:43.344Z,0.00
2019-05-20T02:15:43.280Z,0.00
2019-05-20T02:16:43.189Z,0.00
2019-05-20T02:17:43.130Z,0.00
2019-05-20T02:18:43.040Z,0.00
2019-05-20T02:19:42.958Z,0.00
2019-05-20T02:20:42.902Z,0.00
2019-05-20T02:21:42.803Z,0.00
2019-05-20T02:22:42.730Z,0.00
2019-05-20T02:23:42.650Z,0.00
2019-05-20T02:24:42.578Z,0.00
2019-05-20T02:25:46.574Z,0.00
2019-05-20T02:26:42.420Z,0.00
2019-05-20T02:27:42.343Z,0.00
2019-05-20T02:28:42.272Z,0.00
2019-05-20T02:29:42.190Z,0.00
2019-05-20T02:30:42.116Z,0.00
2019-05-20T02:31:42.041Z,0.00
2019-05-20T02:32:41.966Z,0.00
2019-05-20T02:33:51.915Z,0.00
2019-05-20T02:34:41.810Z,0.00
2019-05-20T02:35:41.733Z,0.00
2019-05-20T02:36:41.656Z,0.00
2019-05-20T02:37:41.580Z,0.00
2019-05-20T02:38:41.503Z,0.00
2019-05-20T02:39:41.428Z,0.00
2019-05-20T02:40:41.353Z,0.00
2019-05-20T02:41:41.273Z,0.00
2019-05-20T02:42:41.198Z,0.00
2019-05-20T02:43:41.145Z,0.00
2019-05-20T02:44:41.037Z,0.00
2019-05-20T02:45:40.969Z,0.00
2019-05-20T02:46:40.890Z,0.00
2019-05-20T02:47:40.813Z,0.00
2019-05-20T02:48:40.735Z,0.00
2019-05-20T02:49:40.660Z,0.00
2019-05-20T02:50:40.591Z,0.00
2019-05-20T02:51:40.506Z,0.00
2019-05-20T02:52:40.430Z,0.00
2019-05-20T02:53:40.350Z,0.00
2019-05-20T02:54:40.276Z,0.00
2019-05-20T02:55:40.197Z,0.00
2019-05-20T02:56:40.122Z,0.00
2019-05-20T02:57:40.063Z,4.00
2019-05-20T02:58:39.973Z,4.00
2019-05-20T02:59:39.889Z,4.00
2019-05-20T03:00:39.814Z,4.00
2019-05-20T03:01:39.736Z,4.00
2019-05-20T03:02:39.663Z,4.00
2019-05-20T03:03:39.584Z,8.00
2019-05-20T03:04:39.504Z,4.00
2019-05-20T03:05:39.445Z,8.00
2019-05-20T03:06:39.353Z,8.00
2019-05-20T03:07:39.280Z,8.00
2019-05-20T03:08:39.199Z,8.00
2019-05-20T03:09:39.119Z,12.00
2019-05-20T03:10:39.044Z,12.00
2019-05-20T03:11:38.967Z,12.00
2019-05-20T03:12:38.887Z,20.00
2019-05-20T03:13:38.813Z,20.00
2019-05-20T03:14:38.749Z,20.00
2019-05-20T03:15:38.658Z,20.00
2019-05-20T03:16:38.584Z,28.00
2019-05-20T03:17:38.510Z,28.00
2019-05-20T03:18:38.435Z,32.00
2019-05-20T03:19:38.352Z,36.00
2019-05-20T03:20:38.274Z,40.00
2019-05-20T03:21:38.196Z,44.00
2019-05-20T03:22:38.122Z,48.00
2019-05-20T03:23:38.049Z,56.00
2019-05-20T03:24:37.966Z,60.00
2019-05-20T03:25:37.888Z,60.00
2019-05-20T03:26:37.812Z,68.00
2019-05-20T03:27:37.736Z,76.00
2019-05-20T03:28:37.661Z,80.00
2019-05-20T03:29:37.585Z,88.00
2019-05-20T03:30:37.526Z,96.00
2019-05-20T03:31:37.427Z,104.00
2019-05-20T03:32:37.363Z,116.00
2019-05-20T03:33:37.285Z,128.00
2019-05-20T03:34:47.938Z,136.00
2019-05-20T03:35:37.136Z,144.00
2019-05-20T03:36:37.171Z,156.00
2019-05-20T03:37:36.965Z,164.00
2019-05-20T03:38:36.894Z,172.00
2019-05-20T03:39:36.814Z,184.00
2019-05-20T03:40:36.734Z,192.00
2019-05-20T03:41:36.657Z,200.00
2019-05-20T03:42:36.582Z,204.00
2019-05-20T03:43:36.504Z,216.00
2019-05-20T03:44:36.433Z,224.00
2019-05-20T03:45:36.351Z,232.00
2019-05-20T03:46:36.272Z,244.00
2019-05-20T03:47:36.202Z,252.00
2019-05-20T03:48:36.129Z,264.00
2019-05-20T03:49:36.048Z,276.00
2019-05-20T03:50:35.971Z,292.00
2019-05-20T03:51:35.902Z,304.00
2019-05-20T03:52:35.810Z,324.00
2019-05-20T03:53:35.732Z,340.00
2019-05-20T03:54:35.657Z,364.00
2019-05-20T03:55:35.578Z,388.00
2019-05-20T03:56:35.501Z,412.00
2019-05-20T03:57:35.431Z,428.00
2019-05-20T03:58:35.353Z,452.00
2019-05-20T03:59:35.272Z,472.00
2019-05-20T04:00:35.197Z,496.00
2019-05-20T04:01:35.120Z,516.00
2019-05-20T04:02:35.042Z,544.00
2019-05-20T04:03:34.967Z,572.00
2019-05-20T04:04:34.883Z,600.00
2019-05-20T04:05:34.812Z,636.00
2019-05-20T04:06:34.739Z,668.00
2019-05-20T04:07:34.660Z,708.00
2019-05-20T04:08:34.580Z,752.00
2019-05-20T04:09:34.496Z,800.00
2019-05-20T04:10:34.424Z,864.00
2019-05-20T04:11:34.350Z,924.00
2019-05-20T04:12:34.273Z,968.00
2019-05-20T04:13:34.956Z,1000.00
2019-05-20T04:14:34.111Z,1020.00
2019-05-20T04:15:34.044Z,1020.00
2019-05-20T04:16:33.957Z,1020.00
2019-05-20T04:17:33.882Z,1020.00
2019-05-20T04:18:33.812Z,1008.00
2019-05-20T04:19:33.727Z,1000.00
2019-05-20T04:20:33.663Z,984.00
2019-05-20T04:23:05.599Z,972.00
2019-05-20T04:24:06.016Z,980.00
2019-05-20T04:26:09.822Z,1016.00
2019-05-20T04:27:09.734Z,1032.00
2019-05-20T04:29:14.051Z,1084.00
2019-05-20T04:30:13.972Z,1128.00
2019-05-20T04:32:18.275Z,1196.00
2019-05-20T04:33:18.201Z,1212.00
2019-05-20T04:35:23.500Z,1188.00
2019-05-20T04:36:22.429Z,1184.00
2019-05-20T04:38:26.753Z,1184.00
2019-05-20T04:39:26.657Z,1180.00
2019-05-20T04:41:31.965Z,1176.00
2019-05-20T04:42:31.890Z,1180.00
2019-05-20T04:44:36.208Z,1188.00
2019-05-20T04:45:36.119Z,1180.00
2019-05-20T04:47:40.433Z,1184.00
2019-05-20T04:48:40.342Z,1200.00
2019-05-20T04:50:44.652Z,1252.00
2019-05-20T04:51:44.563Z,1296.00
2019-05-20T04:53:48.870Z,1340.00
2019-05-20T04:54:48.779Z,1368.00
2019-05-20T04:56:53.077Z,1424.00
2019-05-20T04:57:52.999Z,1412.00
2019-05-20T04:59:57.300Z,1420.00
2019-05-20T05:00:57.211Z,1432.00
2019-05-20T05:02:51.470Z,1420.00
2019-05-20T05:03:51.385Z,1444.00
2019-05-20T05:05:55.228Z,1516.00
2019-05-20T05:06:55.137Z,1560.00
2019-05-20T05:08:59.450Z,1692.00
2019-05-20T05:09:59.357Z,1788.00
2019-05-20T05:12:03.661Z,1924.00
2019-05-20T05:13:03.580Z,1948.00
2019-05-20T05:15:08.220Z,1940.00
2019-05-20T05:16:07.801Z,1836.00
2019-05-20T05:18:11.721Z,1672.00
2019-05-20T05:19:11.638Z,1668.00
2019-05-20T05:21:15.953Z,1720.00
2019-05-20T05:22:15.868Z,1716.00
2019-05-20T05:24:20.182Z,1672.00
2019-05-20T05:25:20.090Z,1680.00
2019-05-20T05:27:24.392Z,1692.00
2019-05-20T05:28:24.320Z,1632.00
2019-05-20T05:30:28.617Z,1756.00
2019-05-20T05:31:28.528Z,1792.00
2019-05-20T05:33:32.823Z,1772.00
2019-05-20T05:34:32.764Z,1688.00
2019-05-20T05:36:36.570Z,1392.00
2019-05-20T05:37:36.479Z,1320.00
2019-05-20T05:39:40.815Z,1248.00
2019-05-20T05:40:40.697Z,1276.00
2019-05-20T05:42:33.953Z,1324.00
2019-05-20T05:43:33.859Z,1396.00
2019-05-20T05:45:38.169Z,1448.00
2019-05-20T05:46:38.078Z,1456.00
2019-05-20T05:48:43.405Z,1472.00
2019-05-20T05:49:43.302Z,1504.00
2019-05-20T05:51:47.619Z,1564.00
2019-05-20T05:52:47.534Z,1600.00
2019-05-20T05:53:47.466Z,1660.00
2019-05-20T05:54:47.381Z,1664.00
2019-05-20T05:55:47.308Z,1652.00
2019-05-20T05:56:47.237Z,1668.00
2019-05-20T05:57:47.154Z,1724.00
2019-05-20T05:58:47.075Z,1860.00
2019-05-20T05:59:46.996Z,1860.00
2019-05-20T06:00:46.919Z,1852.00
2019-05-20T06:01:46.844Z,1820.00
2019-05-20T06:02:46.768Z,1788.00
2019-05-20T06:03:46.696Z,1740.00
2019-05-20T06:04:46.616Z,1752.00
2019-05-20T06:05:46.599Z,1816.00
2019-05-20T06:06:46.462Z,1884.00
2019-05-20T06:07:46.386Z,2064.00
2019-05-20T06:08:46.310Z,2160.00
2019-05-20T06:09:46.235Z,2196.00
2019-05-20T06:10:46.157Z,2192.00
2019-05-20T06:11:46.081Z,2136.00
2019-05-20T06:12:46.009Z,1964.00
2019-05-20T06:13:45.922Z,1840.00
2019-05-20T06:14:45.849Z,1852.00
2019-05-20T06:15:45.778Z,1856.00
2019-05-20T06:16:45.702Z,1876.00
2019-05-20T06:17:45.627Z,1928.00
2019-05-20T06:18:45.548Z,1900.00
2019-05-20T06:19:45.469Z,1896.00
2019-05-20T06:20:45.395Z,1936.00
2019-05-20T06:21:45.314Z,1928.00
2019-05-20T06:22:45.242Z,1984.00
2019-05-20T06:23:45.165Z,2104.00
2019-05-20T06:24:45.088Z,2292.00
2019-05-20T06:25:45.012Z,2536.00
2019-05-20T06:26:44.935Z,2788.00
2019-05-20T06:27:44.862Z,3004.00
2019-05-20T06:28:44.785Z,3100.00
2019-05-20T06:29:44.722Z,3180.00
2019-05-20T06:30:44.632Z,3212.00
2019-05-20T06:31:44.555Z,3316.00
2019-05-20T06:32:44.515Z,3620.00
2019-05-20T06:33:44.420Z,3788.00
2019-05-20T06:34:44.331Z,3968.00
2019-05-20T06:35:44.251Z,4136.00
2019-05-20T06:36:44.175Z,4272.00
2019-05-20T06:37:44.097Z,4436.00
2019-05-20T06:38:44.023Z,4648.00
2019-05-20T06:39:43.951Z,4792.00
2019-05-20T06:40:43.879Z,4928.00
2019-05-20T06:41:43.800Z,5100.00
2019-05-20T06:42:43.721Z,5256.00
2019-05-20T06:43:43.643Z,5340.00
2019-05-20T06:44:52.271Z,5316.00
2019-05-20T06:45:43.488Z,5328.00
2019-05-20T06:46:43.415Z,5292.00
2019-05-20T06:47:43.339Z,5380.00
2019-05-20T06:48:43.262Z,5376.00
2019-05-20T06:49:43.193Z,5184.00
2019-05-20T06:50:43.125Z,5156.00
2019-05-20T06:51:43.034Z,4820.00
2019-05-20T06:52:42.957Z,4624.00
2019-05-20T06:53:42.883Z,4536.00
2019-05-20T06:54:42.802Z,4484.00
2019-05-20T06:55:42.732Z,4456.00
2019-05-20T06:56:42.818Z,4480.00
2019-05-20T06:57:42.578Z,4520.00
2019-05-20T06:58:42.501Z,4644.00
2019-05-20T06:59:42.429Z,4816.00
2019-05-20T07:00:42.353Z,4868.00
2019-05-20T07:01:42.278Z,5036.00
2019-05-20T07:02:42.199Z,4996.00
2019-05-20T07:03:42.124Z,5128.00
2019-05-20T07:04:42.047Z,5068.00
2019-05-20T07:05:41.973Z,5148.00
2019-05-20T07:06:46.667Z,5220.00
2019-05-20T07:07:41.822Z,5172.00
2019-05-20T07:08:41.748Z,5184.00
2019-05-20T07:09:41.676Z,5248.00
2019-05-20T07:10:41.608Z,5292.00
2019-05-20T07:11:51.910Z,5284.00
2019-05-20T07:12:41.963Z,5372.00
2019-05-20T07:13:41.374Z,5516.00
2019-05-20T07:14:41.294Z,5608.00
2019-05-20T07:15:41.217Z,5836.00
2019-05-20T07:16:41.155Z,5764.00
2019-05-20T07:17:41.066Z,5976.00
2019-05-20T07:18:40.995Z,5944.00
2019-05-20T07:19:40.918Z,6132.00
2019-05-20T07:20:40.843Z,6128.00
2019-05-20T07:21:40.766Z,6416.00
2019-05-20T07:22:55.134Z,6308.00
2019-05-20T07:23:40.615Z,6296.00
2019-05-20T07:24:40.540Z,6332.00
2019-05-20T07:25:40.467Z,6124.00
2019-05-20T07:26:40.394Z,6096.00
2019-05-20T07:27:40.348Z,5776.00
2019-05-20T07:28:40.238Z,5456.00
2019-05-20T07:29:40.170Z,5420.00
2019-05-20T07:30:40.089Z,5412.00
2019-05-20T07:31:40.019Z,5168.00
2019-05-20T07:32:39.941Z,5460.00
2019-05-20T07:33:39.868Z,5432.00
2019-05-20T07:34:39.795Z,5340.00
2019-05-20T07:35:39.719Z,5424.00
2019-05-20T07:36:39.642Z,4992.00
2019-05-20T07:37:39.568Z,4872.00
2019-05-20T07:38:39.496Z,5192.00
2019-05-20T07:39:39.418Z,5040.00
2019-05-20T07:40:39.349Z,4768.00
2019-05-20T07:41:41.493Z,4872.00
2019-05-20T07:42:39.194Z,5164.00
2019-05-20T07:43:39.120Z,5244.00
2019-05-20T07:44:39.043Z,5424.00
2019-05-20T07:45:38.973Z,5444.00
2019-05-20T07:46:38.895Z,5752.00
2019-05-20T07:47:38.820Z,5772.00
2019-05-20T07:48:38.937Z,5596.00
2019-05-20T07:49:38.671Z,5492.00
2019-05-20T07:50:38.606Z,5700.00
2019-05-20T07:51:38.537Z,5636.00
2019-05-20T07:52:38.449Z,5624.00
2019-05-20T07:53:38.397Z,5540.00
2019-05-20T07:54:38.297Z,5572.00
2019-05-20T07:55:38.227Z,5316.00
2019-05-20T07:56:38.159Z,5548.00
2019-05-20T07:57:38.081Z,5664.00
2019-05-20T07:58:38.012Z,5684.00
2019-05-20T07:59:37.921Z,5380.00
2019-05-20T08:00:37.848Z,5456.00
2019-05-20T08:01:37.793Z,5492.00
2019-05-20T08:02:37.700Z,5624.00
2019-05-20T08:03:38.753Z,5860.00
2019-05-20T08:04:37.602Z,5784.00
2019-05-20T08:05:37.474Z,5676.00
2019-05-20T08:06:37.410Z,5696.00
2019-05-20T08:07:51.430Z,5688.00
2019-05-20T08:08:37.251Z,5552.00
2019-05-20T08:09:44.611Z,5544.00
2019-05-20T08:10:37.104Z,5588.00
2019-05-20T08:11:37.026Z,5536.00
2019-05-20T08:12:36.953Z,5492.00
2019-05-20T08:13:36.919Z,5384.00
2019-05-20T08:14:36.824Z,5492.00
2019-05-20T08:15:36.730Z,5600.00
2019-05-20T08:16:36.657Z,5600.00
2019-05-20T08:17:36.583Z,5740.00
2019-05-20T08:18:36.508Z,5908.00
2019-05-20T08:19:36.483Z,6212.00
2019-05-20T08:20:36.366Z,6364.00
2019-05-20T08:21:36.286Z,6460.00
2019-05-20T08:22:36.233Z,6664.00
2019-05-20T08:23:36.157Z,6780.00
2019-05-20T08:24:36.060Z,6804.00
2019-05-20T08:25:36.091Z,6724.00
2019-05-20T08:26:35.937Z,6692.00
2019-05-20T08:27:35.838Z,6548.00
2019-05-20T08:28:35.764Z,6520.00
2019-05-20T08:29:35.687Z,6196.00
2019-05-20T08:30:35.637Z,6104.00
2019-05-20T08:31:35.541Z,6100.00
2019-05-20T08:32:35.469Z,5916.00
2019-05-20T08:33:35.479Z,5624.00
2019-05-20T08:34:35.369Z,5548.00
2019-05-20T08:35:35.248Z,5796.00
2019-05-20T08:36:35.176Z,5960.00
2019-05-20T08:37:44.924Z,6028.00
2019-05-20T08:38:35.026Z,5828.00
2019-05-20T08:39:35.661Z,5716.00
2019-05-20T08:40:34.876Z,5596.00
2019-05-20T08:41:34.899Z,5660.00
2019-05-20T08:42:34.726Z,5700.00
2019-05-20T08:43:34.654Z,5668.00
2019-05-20T08:44:34.597Z,5548.00
2019-05-20T08:45:34.505Z,5520.00
2019-05-20T08:46:34.429Z,5444.00
2019-05-20T08:47:34.357Z,5368.00
2019-05-20T08:48:34.286Z,5376.00
2019-05-20T08:49:34.604Z,5488.00
2019-05-20T08:50:34.138Z,5888.00
2019-05-20T08:51:34.064Z,6116.00
2019-05-20T08:52:33.986Z,6228.00
2019-05-20T08:53:33.916Z,6412.00
2019-05-20T08:54:33.842Z,6604.00
2019-05-20T08:55:33.773Z,6664.00
2019-05-20T08:56:33.696Z,6732.00
2019-05-20T08:57:33.639Z,6684.00
2019-05-20T08:58:33.540Z,6656.00
2019-05-20T08:59:33.469Z,6492.00
2019-05-20T09:00:33.395Z,6300.00
2019-05-20T09:01:33.319Z,6144.00
2019-05-20T09:02:33.244Z,5940.00
2019-05-20T09:03:33.173Z,5896.00
2019-05-20T09:04:33.101Z,5756.00
2019-05-20T09:05:33.031Z,5832.00
2019-05-20T09:06:32.967Z,5936.00
2019-05-20T09:07:32.917Z,6104.00
2019-05-20T09:08:32.806Z,6360.00
2019-05-20T09:09:32.798Z,6620.00
2019-05-20T09:10:32.659Z,6736.00
2019-05-20T09:11:32.580Z,6728.00
2019-05-20T09:12:32.522Z,6620.00
2019-05-20T09:13:32.431Z,6392.00
2019-05-20T09:14:32.355Z,6156.00
2019-05-20T09:15:32.327Z,6016.00
2019-05-20T09:16:32.231Z,5896.00
2019-05-20T09:17:32.148Z,5844.00
2019-05-20T09:18:32.237Z,5780.00
2019-05-20T09:19:31.995Z,5776.00
2019-05-20T09:20:32.015Z,5860.00
2019-05-20T09:21:31.841Z,6008.00
2019-05-20T09:22:31.774Z,6164.00
2019-05-20T09:23:31.694Z,6308.00
2019-05-20T09:24:31.640Z,6440.00
2019-05-20T09:25:31.559Z,6544.00
2019-05-20T09:26:31.492Z,6580.00
2019-05-20T09:27:31.402Z,6592.00
2019-05-20T09:28:31.376Z,6660.00
2019-05-20T09:29:31.249Z,6756.00
2019-05-20T09:30:31.173Z,6792.00
2019-05-20T09:31:31.113Z,6760.00
2019-05-20T09:32:31.039Z,6824.00
2019-05-20T09:33:31.107Z,6884.00
2019-05-20T09:34:30.881Z,6932.00
2019-05-20T09:35:30.804Z,6892.00
2019-05-20T09:36:30.897Z,6740.00
2019-05-20T09:37:30.743Z,6440.00
2019-05-20T09:38:30.585Z,5896.00
2019-05-20T09:39:30.514Z,5572.00
2019-05-20T09:40:30.439Z,5448.00
2019-05-20T09:41:30.367Z,5704.00
2019-05-20T09:42:30.295Z,6152.00
2019-05-20T09:43:30.218Z,6556.00
2019-05-20T09:44:30.146Z,6692.00
2019-05-20T09:45:30.075Z,6696.00
2019-05-20T09:46:29.990Z,6644.00
2019-05-20T09:47:29.925Z,6268.00
2019-05-20T09:48:29.874Z,5628.00
2019-05-20T09:49:29.775Z,5180.00
2019-05-20T09:50:29.696Z,4920.00
2019-05-20T09:51:29.626Z,4580.00
2019-05-20T09:52:29.550Z,4488.00
2019-05-20T09:53:29.479Z,5012.00
2019-05-20T09:54:29.399Z,5944.00
2019-05-20T09:55:29.359Z,6464.00
2019-05-20T09:56:29.260Z,6572.00
2019-05-20T09:57:29.186Z,6340.00
2019-05-20T09:58:29.106Z,5816.00
2019-05-20T09:59:42.048Z,5128.00
2019-05-20T10:00:28.959Z,4828.00
2019-05-20T10:01:28.888Z,4876.00
2019-05-20T10:02:35.573Z,4960.00
2019-05-20T10:03:28.736Z,4904.00
2019-05-20T10:04:28.664Z,4704.00
2019-05-20T10:05:28.587Z,4716.00
2019-05-20T10:06:28.515Z,4872.00
2019-05-20T10:07:28.443Z,4976.00
2019-05-20T10:08:39.177Z,5080.00
2019-05-20T10:09:28.291Z,5204.00
2019-05-20T10:10:28.220Z,5276.00
2019-05-20T10:11:28.143Z,5232.00
2019-05-20T10:12:44.572Z,5320.00
2019-05-20T10:13:27.996Z,5644.00
2019-05-20T10:14:27.948Z,6000.00
2019-05-20T10:15:27.852Z,6220.00
2019-05-20T10:16:27.775Z,6232.00
2019-05-20T10:17:27.705Z,6012.00
2019-05-20T10:18:37.147Z,5444.00
2019-05-20T10:19:27.556Z,4840.00
2019-05-20T10:20:27.480Z,4772.00
2019-05-20T10:21:27.403Z,4872.00
2019-05-20T10:22:35.035Z,4968.00
2019-05-20T10:24:31.647Z,5404.00
2019-05-20T10:25:31.557Z,5592.00
2019-05-20T10:27:35.923Z,5564.00
2019-05-20T10:28:35.799Z,5516.00
2019-05-20T10:30:40.102Z,5428.00
2019-05-20T10:31:40.024Z,5376.00
2019-05-20T10:33:36.810Z,5192.00
2019-05-20T10:34:36.725Z,5020.00
2019-05-20T10:36:37.514Z,4992.00
2019-05-20T10:37:37.433Z,5364.00
2019-05-20T10:38:54.791Z,5880.00
2019-05-20T10:39:37.285Z,6248.00
2019-05-20T10:40:37.214Z,6452.00
2019-05-20T10:41:37.138Z,6464.00
2019-05-20T10:42:37.063Z,6244.00
2019-05-20T10:43:36.990Z,5884.00
2019-05-20T10:44:36.914Z,5480.00
2019-05-20T10:45:36.838Z,5056.00
2019-05-20T10:46:36.766Z,4696.00
2019-05-20T10:47:36.691Z,4472.00
2019-05-20T10:48:36.619Z,4184.00
2019-05-20T10:49:36.540Z,3948.00
2019-05-20T10:50:36.468Z,3748.00
2019-05-20T10:51:36.401Z,3696.00
2019-05-20T10:52:36.382Z,3844.00
2019-05-20T10:53:36.244Z,4004.00
2019-05-20T10:54:36.174Z,4128.00
2019-05-20T10:55:36.094Z,4256.00
2019-05-20T10:56:36.027Z,4484.00
2019-05-20T10:57:35.949Z,4768.00
2019-05-20T10:58:35.876Z,4952.00
2019-05-20T10:59:35.814Z,5060.00
2019-05-20T11:00:35.729Z,5088.00
2019-05-20T11:01:35.653Z,5120.00
2019-05-20T11:02:35.579Z,5128.00
2019-05-20T11:03:35.505Z,5100.00
2019-05-20T11:04:35.724Z,5104.00
2019-05-20T11:05:35.355Z,4936.00
2019-05-20T11:06:35.281Z,4824.00
2019-05-20T11:07:35.209Z,4792.00
2019-05-20T11:08:35.136Z,4740.00
2019-05-20T11:09:35.058Z,4728.00
2019-05-20T11:10:34.984Z,4696.00
2019-05-20T11:11:34.911Z,4628.00
2019-05-20T11:12:34.836Z,4512.00
2019-05-20T11:13:34.761Z,4356.00
2019-05-20T11:14:34.681Z,4152.00
2019-05-20T11:15:34.613Z,4204.00
2019-05-20T11:16:34.545Z,4364.00
2019-05-20T11:17:34.459Z,4488.00
2019-05-20T11:18:34.405Z,4440.00
2019-05-20T11:19:34.322Z,4360.00
2019-05-20T11:20:34.254Z,4348.00
2019-05-20T11:21:34.164Z,4372.00
2019-05-20T11:22:34.086Z,4504.00
2019-05-20T11:23:34.015Z,4560.00
2019-05-20T11:24:33.940Z,4636.00
2019-05-20T11:25:33.865Z,4756.00
2019-05-20T11:26:33.827Z,4872.00
2019-05-20T11:27:33.722Z,4904.00
2019-05-20T11:28:33.644Z,4860.00
2019-05-20T11:29:33.634Z,4792.00
2019-05-20T11:30:33.491Z,4712.00
2019-05-20T11:31:33.419Z,4640.00
2019-05-20T11:32:33.352Z,4616.00
2019-05-20T11:33:33.269Z,4652.00
2019-05-20T11:34:33.282Z,4696.00
2019-05-20T11:35:33.120Z,4764.00
2019-05-20T11:36:33.047Z,4864.00
2019-05-20T11:37:32.970Z,4928.00
2019-05-20T11:38:32.892Z,4940.00
2019-05-20T11:39:34.132Z,4936.00
2019-05-20T11:40:32.750Z,4880.00
2019-05-20T11:41:53.021Z,4744.00
2019-05-20T11:42:32.598Z,4580.00
2019-05-20T11:43:32.527Z,4428.00
2019-05-20T11:44:32.452Z,4340.00
2019-05-20T11:45:32.378Z,4328.00
2019-05-20T11:46:32.300Z,4388.00
2019-05-20T11:47:32.226Z,4468.00
2019-05-20T11:48:32.155Z,4524.00
2019-05-20T11:49:32.133Z,4520.00
2019-05-20T11:50:32.008Z,4496.00
2019-05-20T11:51:31.927Z,4464.00
2019-05-20T11:52:31.909Z,4440.00
2019-05-20T11:53:31.780Z,4444.00
2019-05-20T11:54:31.707Z,4516.00
2019-05-20T11:55:31.660Z,4580.00
2019-05-20T11:56:31.559Z,4668.00
2019-05-20T11:57:31.491Z,4808.00
2019-05-20T11:58:31.404Z,4944.00
2019-05-20T11:59:31.334Z,5052.00
2019-05-20T12:00:31.265Z,5124.00
2019-05-20T12:01:31.181Z,5172.00
2019-05-20T12:02:31.109Z,5192.00
2019-05-20T12:03:31.034Z,5260.00
2019-05-20T12:04:30.969Z,5336.00
2019-05-20T12:05:30.887Z,5348.00
2019-05-20T12:06:30.851Z,5408.00
2019-05-20T12:07:30.737Z,5316.00
2019-05-20T12:08:30.663Z,5328.00
2019-05-20T12:09:30.587Z,5508.00
2019-05-20T12:10:30.515Z,5616.00
2019-05-20T12:11:30.436Z,5584.00
2019-05-20T12:12:30.365Z,5524.00
2019-05-20T12:13:30.292Z,5424.00
2019-05-20T12:14:30.215Z,5324.00
2019-05-20T12:15:30.138Z,5136.00
2019-05-20T12:16:30.068Z,4928.00
2019-05-20T12:17:30.003Z,4740.00
2019-05-20T12:18:29.918Z,4568.00
2019-05-20T12:19:29.850Z,4504.00
2019-05-20T12:20:29.769Z,4544.00
2019-05-20T12:21:29.694Z,4572.00
2019-05-20T12:22:29.619Z,4608.00
2019-05-20T12:23:29.544Z,4552.00
2019-05-20T12:24:29.475Z,4536.00
2019-05-20T12:25:29.395Z,4404.00
2019-05-20T12:26:29.323Z,4200.00
2019-05-20T12:27:29.250Z,4040.00
2019-05-20T12:28:29.170Z,3940.00
2019-05-20T12:29:29.101Z,3828.00
2019-05-20T12:30:29.041Z,3608.00
2019-05-20T12:31:28.948Z,3492.00
2019-05-20T12:32:28.875Z,3592.00
2019-05-20T12:33:28.799Z,3636.00
2019-05-20T12:34:28.725Z,3712.00
2019-05-20T12:35:28.649Z,3848.00
2019-05-20T12:36:28.603Z,3376.00
2019-05-20T12:37:28.497Z,3236.00
2019-05-20T12:38:28.425Z,3380.00
2019-05-20T12:39:28.358Z,3484.00
2019-05-20T12:40:28.279Z,3608.00
2019-05-20T12:41:28.212Z,3768.00
2019-05-20T12:42:28.121Z,3748.00
2019-05-20T12:43:28.048Z,4140.00
2019-05-20T12:44:27.981Z,4036.00
2019-05-20T12:45:27.905Z,3940.00
2019-05-20T12:46:27.831Z,3900.00
2019-05-20T12:47:27.754Z,3792.00
2019-05-20T12:48:27.679Z,3668.00
2019-05-20T12:49:27.768Z,3576.00
2019-05-20T12:50:27.527Z,3460.00
2019-05-20T12:51:27.455Z,3488.00
2019-05-20T12:52:27.380Z,3592.00
2019-05-20T12:53:27.302Z,3616.00
2019-05-20T12:54:27.297Z,3612.00
2019-05-20T12:55:27.155Z,3664.00
2019-05-20T12:56:27.090Z,3692.00
2019-05-20T12:57:27.006Z,3724.00
2019-05-20T12:58:26.942Z,3748.00
2019-05-20T12:59:26.858Z,3768.00
2019-05-20T13:00:26.787Z,3736.00
2019-05-20T13:01:26.715Z,3664.00
2019-05-20T13:02:26.635Z,3584.00